createdAt,value
2023-02-01T00:00:28.742Z,99737.28
2023-02-01T00:02:55.233Z,99728.56
2023-02-01T00:05:21.627Z,99733.03
2023-02-01T00:07:50.001Z,99731.97
2023-02-01T00:10:16.760Z,99729.19
2023-02-01T00:12:43.221Z,99731.75
2023-02-01T00:15:10.403Z,99722.38
2023-02-01T00:20:04.959Z,99733.03
2023-02-01T00:22:31.330Z,99728.56
2023-02-01T00:24:57.707Z,99728.16
2023-02-01T00:27:24.144Z,99720.19
2023-02-01T00:29:50.499Z,99726.25
2023-02-01T00:32:16.892Z,99729.66
2023-02-01T00:34:43.338Z,99727.09
2023-02-01T00:37:09.716Z,99717.50
2023-02-01T00:39:36.134Z,99720.56
2023-02-01T00:42:03.151Z,99730.41
2023-02-01T00:44:33.920Z,99734.38
2023-02-01T00:47:01.102Z,99723.28
2023-02-01T00:49:27.891Z,99723.19
2023-02-01T00:51:54.359Z,99719.28
2023-02-01T00:54:20.737Z,99725.34
2023-02-01T00:56:47.158Z,99722.28
2023-02-01T00:59:13.506Z,99722.47
2023-02-01T01:01:40.152Z,99730.38
2023-02-01T01:04:06.789Z,99723.41
2023-02-01T01:06:34.688Z,99723.41
2023-02-01T01:09:04.511Z,99731.22
2023-02-01T01:11:33.749Z,99716.00
2023-02-01T01:14:00.902Z,99723.13
2023-02-01T01:16:29.412Z,99715.25
2023-02-01T01:18:56.204Z,99715.16
2023-02-01T01:21:23.054Z,99698.44
2023-02-01T01:23:49.498Z,99685.59
2023-02-01T01:26:23.723Z,99680.84
2023-02-01T01:28:50.333Z,99677.25
2023-02-01T01:31:18.381Z,99676.50
2023-02-01T01:33:45.419Z,99667.00
2023-02-01T01:36:13.303Z,99669.66
2023-02-01T01:38:41.350Z,99667.19
2023-02-01T01:41:08.902Z,99663.69
2023-02-01T01:43:47.348Z,99661.66
2023-02-01T01:46:18.633Z,99664.53
2023-02-01T01:48:45.947Z,99669.97
2023-02-01T01:51:14.977Z,99671.06
2023-02-01T01:53:46.445Z,99690.75
2023-02-01T01:56:13.802Z,99682.97
2023-02-01T01:58:41.269Z,99690.00
2023-02-01T02:09:06.856Z,99694.03
2023-02-01T02:11:33.588Z,99684.84
2023-02-01T02:14:00.727Z,99683.03
2023-02-01T02:16:33.085Z,99675.66
2023-02-01T02:19:25.928Z,99663.00
2023-02-01T02:22:16.409Z,99666.69
2023-02-01T02:25:11.540Z,99654.38
2023-02-01T02:27:53.256Z,99635.94
2023-02-01T02:30:41.476Z,99655.59
2023-02-01T02:33:13.847Z,99647.72
2023-02-01T02:35:46.317Z,99635.59
2023-02-01T02:38:36.458Z,99646.97
2023-02-01T02:41:08.398Z,99647.72
2023-02-01T02:44:13.741Z,99644.31
2023-02-01T02:47:04.268Z,99652.84
2023-02-01T02:50:29.518Z,99651.66
2023-02-01T02:53:34.548Z,99652.47
2023-02-01T02:56:22.457Z,99653.66
2023-02-01T02:59:08.353Z,99646.22
2023-02-01T03:01:53.502Z,99651.75
2023-02-01T03:04:21.927Z,99650.91
2023-02-01T03:06:48.350Z,99650.91
2023-02-01T03:09:23.531Z,99643.13
2023-02-01T03:12:12.382Z,99634.28
2023-02-01T03:14:44.860Z,99638.06
2023-02-01T03:17:23.188Z,99626.81
2023-02-01T03:19:52.873Z,99621.22
2023-02-01T03:22:27.507Z,99616.38
2023-02-01T03:24:58.650Z,99622.28
2023-02-01T03:27:41.822Z,99614.31
2023-02-01T03:30:38.489Z,99618.38
2023-02-01T03:33:14.723Z,99614.47
2023-02-01T03:36:03.519Z,99602.31
2023-02-01T03:38:41.442Z,99609.16
2023-02-01T03:41:25.155Z,99616.91
2023-02-01T03:44:02.625Z,99613.06
2023-02-01T03:46:35.298Z,99616.78
2023-02-01T03:49:05.917Z,99612.94
2023-02-01T03:51:33.628Z,99625.41
2023-02-01T03:54:02.548Z,99620.22
2023-02-01T03:56:30.665Z,99619.03
2023-02-01T03:58:59.988Z,99619.03
2023-02-01T04:01:29.054Z,99622.09
2023-02-01T04:03:56.138Z,99621.91
2023-02-01T04:06:22.884Z,99618.19
2023-02-01T04:08:49.432Z,99625.59
2023-02-01T04:11:16.411Z,99614.47
2023-02-01T04:13:43.090Z,99615.63
2023-02-01T04:16:09.923Z,99613.69
2023-02-01T04:18:36.705Z,99611.56
2023-02-01T04:21:04.226Z,99611.38
2023-02-01T04:23:32.419Z,99611.28
2023-02-01T04:26:03.647Z,99614.94
2023-02-01T04:28:30.620Z,99610.84
2023-02-01T04:30:57.620Z,99610.19
2023-02-01T04:33:24.227Z,99617.41
2023-02-01T04:35:50.728Z,99616.47
2023-02-01T04:38:17.877Z,99618.03
2023-02-01T04:40:44.262Z,99626.19
2023-02-01T04:43:10.735Z,99619.06
2023-02-01T04:45:37.205Z,99622.13
2023-02-01T04:48:03.921Z,99617.56
2023-02-01T04:50:30.619Z,99620.59
2023-02-01T04:52:57.054Z,99612.28
2023-02-01T04:55:23.396Z,99615.94
2023-02-01T04:57:49.775Z,99613.75
2023-02-01T05:00:16.837Z,99613.94
2023-02-01T05:02:43.228Z,99607.78
2023-02-01T05:05:09.938Z,99606.41
2023-02-01T05:07:36.347Z,99600.19
2023-02-01T05:10:02.733Z,99598.50
2023-02-01T05:12:47.901Z,99591.00
2023-02-01T05:15:14.449Z,99583.69
2023-02-01T05:17:41.203Z,99582.69
2023-02-01T05:20:09.224Z,99575.28
2023-02-01T05:22:35.643Z,99581.56
2023-02-01T05:25:02.007Z,99583.09
2023-02-01T05:27:31.681Z,99590.41
2023-02-01T05:29:58.016Z,99601.97
2023-02-01T05:32:24.438Z,99601.38
2023-02-01T05:34:51.143Z,99612.94
2023-02-01T05:37:17.564Z,99611.44
2023-02-01T05:39:43.963Z,99601.78
2023-02-01T05:42:10.480Z,99614.88
2023-02-01T05:44:36.846Z,99618.56
2023-02-01T05:47:03.267Z,99620.38
2023-02-01T05:49:29.635Z,99610.47
2023-02-01T05:51:56.012Z,99610.47
2023-02-01T05:54:22.449Z,99613.13
2023-02-01T05:56:48.846Z,99622.53
2023-02-01T05:59:15.293Z,99620.72
2023-02-01T06:01:41.663Z,99621.28
2023-02-01T06:04:09.637Z,99599.38
2023-02-01T06:06:37.627Z,99605.16
2023-02-01T06:09:05.063Z,99609.91
2023-02-01T06:11:32.582Z,99609.53
2023-02-01T06:13:59.397Z,99614.75
2023-02-01T06:16:27.363Z,99618.91
2023-02-01T06:18:54.657Z,99608.00
2023-02-01T06:21:24.562Z,99608.38
2023-02-01T06:23:52.652Z,99611.22
2023-02-01T06:26:19.135Z,99608.38
2023-02-01T06:28:45.738Z,99603.56
2023-02-01T06:31:12.892Z,99599.09
2023-02-01T06:33:39.790Z,99596.63
2023-02-01T06:36:08.309Z,99597.94
2023-02-01T06:38:37.888Z,99595.75
2023-02-01T06:41:04.903Z,99591.69
2023-02-01T06:43:32.034Z,99598.97
2023-02-01T06:46:03.296Z,99599.19
2023-02-01T06:48:30.132Z,99605.16
2023-02-01T06:50:56.500Z,99604.38
2023-02-01T06:53:22.947Z,99610.81
2023-02-01T06:55:54.268Z,99613.47
2023-02-01T06:58:20.626Z,99612.44
2023-02-01T07:00:47.063Z,99628.00
2023-02-01T07:03:13.451Z,99634.25
2023-02-01T07:05:39.813Z,99630.53
2023-02-01T07:08:06.264Z,99629.97
2023-02-01T07:10:34.794Z,99647.53
2023-02-01T07:13:01.223Z,99655.44
2023-02-01T07:15:27.642Z,99639.28
2023-02-01T07:17:57.118Z,99647.81
2023-02-01T07:20:24.377Z,99645.44
2023-02-01T07:22:56.575Z,99647.72
2023-02-01T07:25:23.800Z,99653.69
2023-02-01T07:27:50.280Z,99659.22
2023-02-01T07:30:17.104Z,99660.22
2023-02-01T07:32:43.590Z,99655.88
2023-02-01T07:35:10.050Z,99667.47
2023-02-01T07:37:36.408Z,99668.22
2023-02-01T07:40:02.910Z,99670.97
2023-02-01T07:42:29.258Z,99670.97
2023-02-01T07:44:55.607Z,99676.09
2023-02-01T07:47:22.003Z,99671.53
2023-02-01T07:49:48.454Z,99671.19
2023-02-01T07:52:17.703Z,99673.16
2023-02-01T07:54:44.348Z,99675.91
2023-02-01T07:57:12.717Z,99684.81
2023-02-01T07:59:59.024Z,99680.84
2023-02-01T08:02:25.444Z,99679.13
2023-02-01T08:04:51.841Z,99667.53
2023-02-01T08:07:18.207Z,99664.66
2023-02-01T08:09:44.569Z,99676.47
2023-02-01T08:12:10.949Z,99680.16
2023-02-01T08:14:37.335Z,99677.41
2023-02-01T08:17:03.789Z,99672.44
2023-02-01T08:19:30.164Z,99677.03
2023-02-01T08:21:56.525Z,99697.63
2023-02-01T08:24:23.070Z,99686.91
2023-02-01T08:26:49.500Z,99688.81
2023-02-01T08:29:15.914Z,99684.50
2023-02-01T08:31:42.817Z,99687.28
2023-02-01T08:34:09.990Z,99679.84
2023-02-01T08:36:36.484Z,99686.78
2023-02-01T08:39:06.496Z,99681.44
2023-02-01T08:41:32.852Z,99683.47
2023-02-01T08:43:59.260Z,99694.56
2023-02-01T08:46:25.821Z,99684.22
2023-02-01T08:48:52.768Z,99693.25
2023-02-01T08:51:21.377Z,99689.16
2023-02-01T08:53:48.348Z,99694.47
2023-02-01T08:56:16.954Z,99701.47
2023-02-01T08:58:43.747Z,99703.19
2023-02-01T09:01:13.510Z,99705.00
2023-02-01T09:03:40.190Z,99714.03
2023-02-01T09:06:09.634Z,99723.91
2023-02-01T09:08:36.794Z,99723.53
2023-02-01T09:11:06.253Z,99725.22
2023-02-01T09:13:34.551Z,99706.97
2023-02-01T09:16:01.283Z,99717.59
2023-02-01T09:18:27.871Z,99724.88
2023-02-01T09:20:54.293Z,99712.00
2023-02-01T09:23:23.497Z,99711.03
2023-02-01T09:25:53.053Z,99713.94
2023-02-01T09:28:20.153Z,99716.06
2023-02-01T09:30:47.236Z,99725.16
2023-02-01T09:33:13.755Z,99700.13
2023-02-01T09:35:40.116Z,99696.63
2023-02-01T09:38:06.541Z,99709.53
2023-02-01T09:40:35.289Z,99709.00
2023-02-01T09:43:23.596Z,99714.78
2023-02-01T09:45:59.229Z,99709.16
2023-02-01T09:48:31.870Z,99701.19
2023-02-01T09:51:00.130Z,99691.91
2023-02-01T09:53:41.247Z,99695.59
2023-02-01T09:56:15.213Z,99701.31
2023-02-01T09:59:14.269Z,99712.19
2023-02-01T10:01:40.765Z,99699.44
2023-02-01T10:04:11.557Z,99696.00
2023-02-01T10:06:43.733Z,99687.38
2023-02-01T10:09:16.277Z,99701.75
2023-02-01T10:12:10.741Z,99691.94
2023-02-01T10:14:37.051Z,99699.63
2023-02-01T10:17:09.451Z,99687.28
2023-02-01T10:19:44.997Z,99691.56
2023-02-01T10:22:58.959Z,99688.78
2023-02-01T10:25:32.358Z,99686.88
2023-02-01T10:28:01.611Z,99689.84
2023-02-01T10:30:36.349Z,99691.00
2023-02-01T10:33:18.966Z,99675.69
2023-02-01T10:35:47.582Z,99683.75
2023-02-01T10:38:28.988Z,99681.56
2023-02-01T10:41:01.981Z,99675.59
2023-02-01T10:43:44.024Z,99668.28
2023-02-01T10:46:11.114Z,99660.06
2023-02-01T10:48:45.245Z,99665.44
2023-02-01T10:51:24.432Z,99663.72
2023-02-01T10:53:55.735Z,99654.34
2023-02-01T10:56:29.770Z,99657.09
2023-02-01T10:59:07.902Z,99652.84
2023-02-01T11:01:59.722Z,99649.66
2023-02-01T11:04:27.483Z,99648.25
2023-02-01T11:07:08.638Z,99646.47
2023-02-01T11:09:40.759Z,99633.44
2023-02-01T11:12:24.430Z,99627.50
2023-02-01T11:14:51.470Z,99620.16
2023-02-01T11:17:33.338Z,99625.38
2023-02-01T11:20:07.372Z,99624.59
2023-02-01T11:22:34.301Z,99598.91
2023-02-01T11:25:08.584Z,99617.78
2023-02-01T11:27:40.358Z,99628.97
2023-02-01T11:30:19.594Z,99617.38
2023-02-01T11:32:49.123Z,99605.50
2023-02-01T11:35:21.217Z,99618.09
2023-02-01T11:38:01.458Z,99630.34
2023-02-01T11:40:37.145Z,99616.16
2023-02-01T11:43:16.135Z,99621.72
2023-02-01T11:45:54.070Z,99627.94
2023-02-01T11:48:26.837Z,99610.47
2023-02-01T11:51:18.759Z,99603.84
2023-02-01T11:54:10.179Z,99610.16
2023-02-01T11:57:20.994Z,99608.13
2023-02-01T11:59:56.809Z,99604.22
2023-02-01T12:02:42.143Z,99594.41
2023-02-01T12:05:43.975Z,99580.50
2023-02-01T12:08:31.477Z,99584.16
2023-02-01T12:11:23.714Z,99592.06
2023-02-01T12:14:06.890Z,99584.59
2023-02-01T12:16:57.622Z,99578.00
2023-02-01T12:19:42.972Z,99574.72
2023-02-01T12:22:15.110Z,99587.75
2023-02-01T12:24:41.714Z,99578.28
2023-02-01T12:27:29.159Z,99586.03
2023-02-01T12:30:36.954Z,99576.34
2023-02-01T12:33:09.158Z,99573.34
2023-02-01T12:36:11.334Z,99574.34
2023-02-01T12:39:05.926Z,99573.84
2023-02-01T12:42:10.833Z,99560.34
2023-02-01T12:44:57.450Z,99569.50
2023-02-01T12:47:36.296Z,99577.50
2023-02-01T12:50:12.248Z,99574.88
2023-02-01T12:52:43.753Z,99573.41
2023-02-01T12:55:39.665Z,99576.06
2023-02-01T12:58:22.309Z,99584.91
2023-02-01T13:00:59.051Z,99577.84
2023-02-01T13:03:38.786Z,99572.19
2023-02-01T13:06:22.561Z,99583.69
2023-02-01T13:09:10.644Z,99572.69
2023-02-01T13:11:43.203Z,99579.44
2023-02-01T13:14:34.985Z,99550.25
2023-02-01T13:17:16.027Z,99561.78
2023-02-01T13:19:51.554Z,99547.31
2023-02-01T13:22:33.929Z,99549.38
2023-02-01T13:25:14.671Z,99551.16
2023-02-01T13:27:41.435Z,99529.94
2023-02-01T13:30:19.127Z,99535.53
2023-02-01T13:33:53.020Z,99535.91
2023-02-01T13:36:29.018Z,99520.03
2023-02-01T13:39:10.123Z,99520.03
2023-02-01T13:41:51.604Z,99524.97
2023-02-01T13:44:27.924Z,99528.69
2023-02-01T13:46:59.126Z,99519.75
2023-02-01T13:49:29.847Z,99519.56
2023-02-01T13:51:59.799Z,99523.06
2023-02-01T13:54:30.320Z,99522.88
2023-02-01T13:57:00.085Z,99516.44
2023-02-01T13:59:41.495Z,99531.19
2023-02-01T14:02:38.833Z,99525.84
2023-02-01T14:05:13.263Z,99526.69
2023-02-01T14:08:06.525Z,99524.69
2023-02-01T14:10:45.515Z,99517.66
2023-02-01T14:13:24.402Z,99543.22
2023-02-01T14:16:03.260Z,99530.44
2023-02-01T14:18:36.094Z,99526.63
2023-02-01T14:21:34.782Z,99528.03
2023-02-01T14:24:02.956Z,99529.84
2023-02-01T14:26:35.622Z,99535.59
2023-02-01T14:29:22.286Z,99539.75
2023-02-01T14:31:51.599Z,99531.31
2023-02-01T14:34:23.246Z,99514.72
2023-02-01T14:37:19.085Z,99534.59
2023-02-01T14:39:45.417Z,99518.53
2023-02-01T14:42:28.537Z,99517.34
2023-02-01T14:45:16.273Z,99535.41
2023-02-01T14:47:43.417Z,99521.34
2023-02-01T14:50:38.431Z,99526.47
2023-02-01T14:53:11.263Z,99527.72
2023-02-01T14:55:50.606Z,99524.31
2023-02-01T14:58:35.690Z,99524.13
2023-02-01T15:01:14.196Z,99529.34
2023-02-01T15:03:40.553Z,99521.03
2023-02-01T15:06:23.325Z,99527.63
2023-02-01T15:08:50.093Z,99532.00
2023-02-01T15:11:17.526Z,99533.69
2023-02-01T15:13:52.983Z,99536.25
2023-02-01T15:16:21.494Z,99529.03
2023-02-01T15:18:48.026Z,99540.00
2023-02-01T15:21:28.491Z,99534.34
2023-02-01T15:24:19.806Z,99534.56
2023-02-01T15:26:46.238Z,99536.78
2023-02-01T15:29:14.418Z,99536.06
2023-02-01T15:31:47.668Z,99535.28
2023-02-01T15:34:14.909Z,99554.69
2023-02-01T15:36:53.543Z,99537.41
2023-02-01T15:39:30.323Z,99536.41
2023-02-01T15:41:58.357Z,99535.78
2023-02-01T15:44:43.514Z,99534.09
2023-02-01T15:47:29.442Z,99552.41
2023-02-01T15:49:58.886Z,99518.78
2023-02-01T15:52:34.339Z,99522.53
2023-02-01T15:55:05.472Z,99537.19
2023-02-01T15:57:41.044Z,99543.56
2023-02-01T16:00:22.464Z,99540.06
2023-02-01T16:02:55.135Z,99536.66
2023-02-01T16:05:43.486Z,99548.97
2023-02-01T16:08:16.284Z,99548.31
2023-02-01T16:10:45.463Z,99550.13
2023-02-01T16:13:12.979Z,99547.25
2023-02-01T16:15:39.879Z,99547.66
2023-02-01T16:18:08.722Z,99551.84
2023-02-01T16:20:36.396Z,99555.00
2023-02-01T16:23:04.486Z,99559.38
2023-02-01T16:25:31.418Z,99576.78
2023-02-01T16:27:57.858Z,99584.31
2023-02-01T16:30:25.358Z,99574.53
2023-02-01T16:32:58.468Z,99588.06
2023-02-01T16:35:33.783Z,99588.69
2023-02-01T16:38:00.159Z,99596.50
2023-02-01T16:40:26.940Z,99594.34
2023-02-01T16:42:56.162Z,99597.25
2023-02-01T16:45:23.205Z,99614.72
2023-02-01T16:47:52.963Z,99624.53
2023-02-01T16:50:24.010Z,99627.50
2023-02-01T16:52:51.331Z,99636.00
2023-02-01T16:55:19.720Z,99628.91
2023-02-01T16:57:46.320Z,99640.50
2023-02-01T17:00:24.158Z,99633.03
2023-02-01T17:02:51.755Z,99642.50
2023-02-01T17:05:18.187Z,99630.69
2023-02-01T17:07:44.673Z,99646.22
2023-02-01T17:10:33.061Z,99648.78
2023-02-01T17:13:00.740Z,99642.38
2023-02-01T17:15:29.816Z,99640.00
2023-02-01T17:17:57.573Z,99639.91
2023-02-01T17:20:27.575Z,99640.88
2023-02-01T17:22:53.959Z,99638.44
2023-02-01T17:25:22.825Z,99654.19
2023-02-01T17:27:49.679Z,99658.19
2023-02-01T17:30:16.981Z,99647.34
2023-02-01T17:32:43.494Z,99651.53
2023-02-01T17:35:23.358Z,99643.19
2023-02-01T17:37:51.256Z,99653.41
2023-02-01T17:40:18.299Z,99666.19
2023-02-01T17:42:44.943Z,99652.66
2023-02-01T17:45:36.645Z,99652.13
2023-02-01T17:48:07.550Z,99669.16
2023-02-01T17:50:37.084Z,99660.44
2023-02-01T17:53:05.957Z,99659.75
2023-02-01T17:55:35.654Z,99665.31
2023-02-01T17:58:02.095Z,99663.38
2023-02-01T18:00:28.516Z,99672.97
2023-02-01T18:02:57.022Z,99651.91
2023-02-01T18:05:28.812Z,99662.31
2023-02-01T18:07:55.183Z,99672.97
2023-02-01T18:10:21.585Z,99665.97
2023-02-01T18:12:48.260Z,99669.75
2023-02-01T18:15:22.019Z,99667.81
2023-02-01T18:17:49.154Z,99673.47
2023-02-01T18:20:23.378Z,99676.16
2023-02-01T18:22:50.665Z,99670.63
2023-02-01T18:25:20.785Z,99667.66
2023-02-01T18:27:49.375Z,99655.97
2023-02-01T18:30:16.624Z,99682.38
2023-02-01T18:32:44.704Z,99675.97
2023-02-01T18:35:23.719Z,99671.81
2023-02-01T18:37:51.965Z,99675.34
2023-02-01T18:40:21.128Z,99670.84
2023-02-01T18:42:48.061Z,99663.50
2023-02-01T18:45:26.495Z,99662.56
2023-02-01T18:47:53.338Z,99663.66
2023-02-01T18:50:20.072Z,99658.97
2023-02-01T18:52:47.214Z,99675.88
2023-02-01T18:55:13.877Z,99655.53
2023-02-01T18:57:40.536Z,99659.91
2023-02-01T19:00:10.209Z,99668.25
2023-02-01T19:02:36.790Z,99663.22
2023-02-01T19:05:03.309Z,99660.75
2023-02-01T19:07:29.845Z,99660.56
2023-02-01T19:09:56.392Z,99659.28
2023-02-01T19:12:22.744Z,99661.75
2023-02-01T19:14:49.150Z,99666.13
2023-02-01T19:17:15.519Z,99666.97
2023-02-01T19:19:42.229Z,99682.19
2023-02-01T19:22:08.603Z,99670.28
2023-02-01T19:24:34.983Z,99678.81
2023-02-01T19:27:01.373Z,99673.47
2023-02-01T19:29:27.748Z,99661.88
2023-02-01T19:31:54.226Z,99671.56
2023-02-01T19:34:20.653Z,99660.72
2023-02-01T19:36:47.750Z,99662.72
2023-02-01T19:39:14.145Z,99669.44
2023-02-01T19:41:40.566Z,99649.13
2023-02-01T19:44:07.019Z,99650.06
2023-02-01T19:46:33.487Z,99636.44
2023-02-01T19:49:00.169Z,99640.50
2023-02-01T19:51:26.525Z,99645.81
2023-02-01T19:53:52.917Z,99642.22
2023-02-01T19:56:19.274Z,99642.22
2023-02-01T19:58:45.712Z,99662.63
2023-02-01T20:01:12.603Z,99655.72
2023-02-01T20:03:38.991Z,99654.13
2023-02-01T20:06:07.326Z,99652.53
2023-02-01T20:08:33.859Z,99650.19
2023-02-01T20:11:00.255Z,99650.72
2023-02-01T20:13:26.688Z,99650.94
2023-02-01T20:15:59.616Z,99651.69
2023-02-01T20:18:26.820Z,99646.03
2023-02-01T20:20:58.043Z,99654.03
2023-02-01T20:23:25.497Z,99648.16
2023-02-01T20:25:52.769Z,99643.56
2023-02-01T20:28:20.152Z,99647.13
2023-02-01T20:30:47.144Z,99656.38
2023-02-01T20:33:13.551Z,99638.16
2023-02-01T20:35:45.254Z,99640.81
2023-02-01T20:38:11.808Z,99653.81
2023-02-01T20:40:38.301Z,99628.91
2023-02-01T20:43:05.203Z,99642.13
2023-02-01T20:45:31.625Z,99641.34
2023-02-01T20:47:58.105Z,99633.56
2023-02-01T20:50:25.116Z,99642.41
2023-02-01T20:52:51.847Z,99640.63
2023-02-01T20:55:18.883Z,99648.28
2023-02-01T20:57:45.343Z,99646.88
2023-02-01T21:00:12.537Z,99643.59
2023-02-01T21:02:39.262Z,99646.69
2023-02-01T21:05:06.238Z,99648.38
2023-02-01T21:07:32.633Z,99646.47
2023-02-01T21:09:59.010Z,99651.50
2023-02-01T21:12:25.432Z,99631.78
2023-02-01T21:14:51.858Z,99649.81
2023-02-01T21:17:18.248Z,99637.84
2023-02-01T21:19:44.683Z,99649.47
2023-02-01T21:22:12.419Z,99650.94
2023-02-01T21:24:40.981Z,99642.84
2023-02-01T21:27:08.333Z,99629.66
2023-02-01T21:29:34.699Z,99645.00
2023-02-01T21:32:01.170Z,99650.66
2023-02-01T21:34:27.746Z,99640.09
2023-02-01T21:36:54.118Z,99659.69
2023-02-01T21:39:20.711Z,99664.94
2023-02-01T21:42:05.500Z,99652.34
2023-02-01T21:44:31.889Z,99658.66
2023-02-01T21:46:58.342Z,99662.88
2023-02-01T21:49:27.367Z,99663.22
2023-02-01T21:51:54.038Z,99661.63
2023-02-01T21:54:20.507Z,99670.16
2023-02-01T21:56:47.126Z,99683.38
2023-02-01T21:59:13.530Z,99673.56
2023-02-01T22:01:41.044Z,99671.03
2023-02-01T22:04:08.132Z,99681.44
2023-02-01T22:06:45.790Z,99685.63
2023-02-01T22:09:21.626Z,99676.63
2023-02-01T22:11:48.747Z,99675.81
2023-02-01T22:14:15.916Z,99681.34
2023-02-01T22:16:42.781Z,99681.25
2023-02-01T22:19:14.838Z,99690.06
2023-02-01T22:21:43.389Z,99700.53
2023-02-01T22:24:11.759Z,99697.22
2023-02-01T22:26:39.034Z,99701.47
2023-02-01T22:29:06.258Z,99691.34
2023-02-01T22:31:32.764Z,99691.56
2023-02-01T22:33:59.360Z,99683.34
2023-02-01T22:36:25.822Z,99697.75
2023-02-01T22:38:52.687Z,99685.47
2023-02-01T22:41:19.946Z,99684.31
2023-02-01T22:43:47.476Z,99695.72
2023-02-01T22:46:16.497Z,99699.44
2023-02-01T22:48:44.726Z,99694.75
2023-02-01T22:51:19.081Z,99691.88
2023-02-01T22:53:45.971Z,99700.38
2023-02-01T22:56:14.158Z,99699.34
2023-02-01T22:58:40.759Z,99706.38
2023-02-01T23:01:12.156Z,99708.59
2023-02-01T23:03:39.698Z,99708.59
2023-02-01T23:06:07.677Z,99696.16
2023-02-01T23:08:35.527Z,99695.72
2023-02-01T23:11:09.963Z,99708.31
2023-02-01T23:13:37.730Z,99707.13
2023-02-01T23:16:10.383Z,99709.78
2023-02-01T23:18:36.890Z,99713.41
2023-02-01T23:21:08.802Z,99702.75
2023-02-01T23:23:35.267Z,99704.03
2023-02-01T23:26:01.727Z,99710.31
2023-02-01T23:28:29.264Z,99710.44
2023-02-01T23:30:55.842Z,99719.28
2023-02-01T23:33:26.759Z,99716.59
2023-02-01T23:36:01.577Z,99717.38
2023-02-01T23:38:29.133Z,99714.03
2023-02-01T23:41:03.986Z,99732.41
2023-02-01T23:43:48.807Z,99733.47
2023-02-01T23:46:16.378Z,99731.75
2023-02-01T23:48:44.156Z,99722.19
2023-02-01T23:51:11.065Z,99727.72
2023-02-01T23:53:37.527Z,99730.47
2023-02-01T23:56:04.200Z,99732.59
2023-02-01T23:58:30.578Z,99735.06
